Time;durP1;ratioP1;P1;durP2;ratioP2;P2;SDS_P1;SDS_P2;PMS_P1;PMS_P2;Temp;Humidity;BMP_temperature;BMP_pressure;BME280_temperature;BME280_humidity;BME280_pressure;Samples;Min_cycle;Max_cycle;Signal;HPM_P1;HPM_P2
2024/01/13 00:01:17;;;;;;;34.30;16.77;;;;;;;-146.58;100.00;69501.63;5032446;28;20079;-63
2024/01/13 00:03:42;;;;;;;28.70;16.48;;;;;;;-146.58;100.00;69501.63;5030509;28;20048;-63
2024/01/13 00:06:08;;;;;;;39.50;19.48;;;;;;;-146.58;100.00;69501.63;5031077;28;20034;-63
2024/01/13 00:08:33;;;;;;;36.17;19.13;;;;;;;-146.58;100.00;69501.63;5030754;28;20034;-63
2024/01/13 00:10:59;;;;;;;35.50;19.25;;;;;;;-146.58;100.00;69501.63;5032179;28;20078;-64
2024/01/13 00:13:24;;;;;;;31.65;15.23;;;;;;;-146.58;100.00;69501.63;5031846;28;20033;-64
2024/01/13 00:15:50;;;;;;;35.83;19.23;;;;;;;-146.58;100.00;69501.63;5030516;28;20382;-63
2024/01/13 00:18:18;;;;;;;30.67;17.83;;;;;;;-146.58;100.00;69501.63;5032130;28;20476;-63
2024/01/13 00:20:44;;;;;;;28.85;16.42;;;;;;;-146.58;100.00;69501.63;5030056;28;20034;-63
2024/01/13 00:23:09;;;;;;;36.13;18.65;;;;;;;-146.58;100.00;69501.63;5031901;28;20033;-63
2024/01/13 00:25:34;;;;;;;30.15;19.02;;;;;;;-146.58;100.00;69501.63;5030405;28;20041;-63
2024/01/13 00:28:00;;;;;;;30.33;18.88;;;;;;;-146.58;100.00;69501.63;5031563;28;20480;-64
2024/01/13 00:30:26;;;;;;;26.92;17.77;;;;;;;-146.58;100.00;69501.63;5030496;28;20033;-64
2024/01/13 00:32:51;;;;;;;32.05;18.88;;;;;;;-146.58;100.00;69501.63;5031717;28;20021;-63
2024/01/13 00:35:16;;;;;;;27.85;16.33;;;;;;;-146.58;100.00;69501.63;5030100;28;20096;-63
2024/01/13 00:37:42;;;;;;;29.50;17.27;;;;;;;-146.58;100.00;69501.63;5031483;28;20481;-63
2024/01/13 00:40:08;;;;;;;35.78;18.45;;;;;;;-146.58;100.00;69501.63;5030082;28;20048;-63
2024/01/13 00:42:33;;;;;;;37.40;19.23;;;;;;;-146.58;100.00;69501.63;5030858;28;20033;-64
2024/01/13 00:44:59;;;;;;;42.17;20.00;;;;;;;-146.58;100.00;69501.63;5030059;28;20042;-63
2024/01/13 00:47:24;;;;;;;37.08;20.15;;;;;;;-146.58;100.00;69501.63;5031564;28;20033;-63
2024/01/13 00:49:50;;;;;;;35.08;19.08;;;;;;;-146.58;100.00;69501.63;5029614;28;20049;-63
2024/01/13 00:52:15;;;;;;;37.97;22.73;;;;;;;-146.58;100.00;69501.63;5031493;28;20056;-63
2024/01/13 00:54:43;;;;;;;38.63;20.05;;;;;;;-146.58;100.00;69501.63;5029743;28;20038;-64
2024/01/13 00:57:08;;;;;;;39.47;22.33;;;;;;;-146.58;100.00;69501.63;5031110;28;20035;-63
2024/01/13 00:59:33;;;;;;;39.30;22.13;;;;;;;-146.58;100.00;69501.63;5029675;28;20046;-64
2024/01/13 01:01:59;;;;;;;45.80;24.88;;;;;;;-146.58;100.00;69501.63;5031050;28;20037;-63
2024/01/13 01:04:24;;;;;;;38.10;21.77;;;;;;;-146.58;100.00;69501.63;5029607;28;20091;-63
2024/01/13 01:06:50;;;;;;;40.47;23.02;;;;;;;-146.58;100.00;69501.63;5031069;28;20024;-63
2024/01/13 01:09:15;;;;;;;41.78;22.55;;;;;;;-146.58;100.00;69501.63;5029835;28;20041;-63
2024/01/13 01:11:42;;;;;;;40.53;20.75;;;;;;;-146.58;100.00;69501.63;5030241;28;20025;-63
2024/01/13 01:14:08;;;;;;;38.40;21.15;;;;;;;-146.58;100.00;69501.63;5029499;28;20052;-63
2024/01/13 01:16:33;;;;;;;35.28;21.98;;;;;;;-146.58;100.00;69501.63;5030967;28;20025;-63
2024/01/13 01:18:59;;;;;;;41.75;21.10;;;;;;;-146.58;100.00;69501.63;5028951;28;20087;-63
2024/01/13 01:21:24;;;;;;;36.42;19.98;;;;;;;-146.58;100.00;69501.63;5030935;28;20025;-63
2024/01/13 01:23:49;;;;;;;36.25;18.75;;;;;;;-146.58;100.00;69501.63;5029178;28;20038;-63
2024/01/13 01:26:15;;;;;;;35.80;19.73;;;;;;;-146.58;100.00;69501.63;5030950;28;20021;-63
2024/01/13 01:28:40;;;;;;;30.08;17.55;;;;;;;-146.58;100.00;69501.63;5029208;28;20396;-63
2024/01/13 01:31:06;;;;;;;35.80;19.38;;;;;;;-146.58;100.00;69501.63;5030851;28;20017;-64
2024/01/13 01:33:32;;;;;;;40.55;23.00;;;;;;;-146.58;100.00;69501.63;5029056;28;20421;-64
2024/01/13 01:35:57;;;;;;;43.30;22.23;;;;;;;-146.58;100.00;69501.63;5030808;28;20468;-60
2024/01/13 01:38:22;;;;;;;40.92;23.02;;;;;;;-146.58;100.00;69501.63;5030925;28;20021;-63
2024/01/13 01:40:53;;;;;;;41.17;22.60;;;;;;;-146.58;100.00;69501.63;5029158;28;20080;-63
2024/01/13 01:43:18;;;;;;;40.60;22.35;;;;;;;-146.58;100.00;69501.63;5030778;28;20044;-63
2024/01/13 01:45:44;;;;;;;31.10;20.27;;;;;;;-146.58;100.00;69501.63;5029026;28;20038;-63
2024/01/13 01:48:10;;;;;;;33.38;20.02;;;;;;;-146.58;100.00;69501.63;5030574;28;20047;-63
2024/01/13 01:50:36;;;;;;;38.28;20.52;;;;;;;-146.58;100.00;69501.63;5029204;28;20497;-62
2024/01/13 01:53:01;;;;;;;36.13;18.85;;;;;;;-146.58;100.00;69501.63;5030753;28;20029;-62
2024/01/13 01:55:27;;;;;;;39.70;23.13;;;;;;;-146.58;100.00;69501.63;5028887;28;20095;-62
2024/01/13 01:57:54;;;;;;;32.60;19.08;;;;;;;-146.58;100.00;69501.63;5030635;28;20451;-62
2024/01/13 02:00:20;;;;;;;37.45;21.65;;;;;;;-146.58;100.00;69501.63;5029338;28;20037;-62
2024/01/13 02:02:45;;;;;;;40.65;21.60;;;;;;;-146.58;100.00;69501.63;5030267;28;20067;-62
2024/01/13 02:05:11;;;;;;;35.33;20.90;;;;;;;-146.58;100.00;69501.63;5029138;28;20037;-62
2024/01/13 02:07:36;;;;;;;37.03;22.55;;;;;;;-146.58;100.00;69501.63;5030491;28;20143;-62
2024/01/13 02:10:03;;;;;;;31.50;18.40;;;;;;;-146.58;100.00;69501.63;5028361;28;20046;-62
2024/01/13 02:12:28;;;;;;;30.38;19.95;;;;;;;-146.58;100.00;69501.63;5030533;28;20137;-62
2024/01/13 02:14:54;;;;;;;35.05;17.60;;;;;;;-146.58;100.00;69501.63;5029402;28;20164;-62
2024/01/13 02:17:21;;;;;;;31.85;18.42;;;;;;;-146.58;100.00;69501.63;5030471;28;20044;-62
2024/01/13 02:19:46;;;;;;;33.80;16.73;;;;;;;-146.58;100.00;69501.63;5028691;28;20045;-62
2024/01/13 02:22:12;;;;;;;34.47;18.63;;;;;;;-146.58;100.00;69501.63;5030438;28;20018;-62
2024/01/13 02:24:37;;;;;;;24.73;18.05;;;;;;;-146.58;100.00;69501.63;5029066;28;20034;-64
2024/01/13 02:27:03;;;;;;;35.75;16.77;;;;;;;-146.58;100.00;69501.63;5029975;28;20025;-62
2024/01/13 02:29:28;;;;;;;24.02;16.85;;;;;;;-146.58;100.00;69501.63;5029672;28;20073;-62
2024/01/13 02:31:53;;;;;;;23.13;15.35;;;;;;;-146.58;100.00;69501.63;5034170;28;20022;-62
2024/01/13 02:34:19;;;;;;;20.58;13.88;;;;;;;-146.58;100.00;69501.63;5032291;28;20042;-62
2024/01/13 02:36:44;;;;;;;23.25;15.02;;;;;;;-146.58;100.00;69501.63;5033088;28;20412;-62
2024/01/13 02:39:09;;;;;;;26.60;15.50;;;;;;;-146.58;100.00;69501.63;5032745;28;20041;-62
2024/01/13 02:41:35;;;;;;;28.90;15.52;;;;;;;-146.58;100.00;69501.63;5033321;28;20511;-62
2024/01/13 02:44:00;;;;;;;26.70;18.38;;;;;;;-146.58;100.00;69501.63;5032396;28;20052;-62
2024/01/13 02:46:25;;;;;;;31.52;19.13;;;;;;;-146.58;100.00;69501.63;5033982;28;20036;-62
2024/01/13 02:48:54;;;;;;;31.35;18.67;;;;;;;-146.58;100.00;69501.63;5031990;28;20037;-62
2024/01/13 02:51:20;;;;;;;;;;;;;;;-146.58;100.00;69501.63;5034309;28;20477;-63
2024/01/13 02:53:46;;;;;;;29.23;16.58;;;;;;;-146.58;100.00;69501.63;5031609;28;19924;-64
2024/01/13 02:56:11;;;;;;;36.33;19.90;;;;;;;-146.58;100.00;69501.63;5033191;28;20021;-63
2024/01/13 02:58:37;;;;;;;40.75;21.83;;;;;;;-146.58;100.00;69501.63;5032141;28;20032;-66
2024/01/13 03:01:06;;;;;;;41.88;22.35;;;;;;;-146.58;100.00;69501.63;5033951;28;20033;-64
2024/01/13 03:03:33;;;;;;;38.17;22.13;;;;;;;-146.58;100.00;69501.63;5031039;28;20037;-63
2024/01/13 03:05:58;;;;;;;43.72;24.17;;;;;;;-146.58;100.00;69501.63;5033541;28;20048;-63
2024/01/13 03:08:24;;;;;;;46.42;23.73;;;;;;;-146.58;100.00;69501.63;5033698;28;20022;-63
2024/01/13 03:10:50;;;;;;;47.65;26.33;;;;;;;-146.58;100.00;69501.63;5031495;28;20492;-63
2024/01/13 03:13:15;;;;;;;51.88;25.17;;;;;;;-146.58;100.00;69501.63;5033412;28;20021;-63
2024/01/13 03:15:40;;;;;;;56.45;29.85;;;;;;;-146.58;100.00;69501.63;5031722;28;20525;-63
2024/01/13 03:18:06;;;;;;;52.92;30.58;;;;;;;-146.58;100.00;69501.63;5032968;28;20079;-64
2024/01/13 03:20:31;;;;;;;60.50;30.90;;;;;;;-146.58;100.00;69501.63;5031558;28;20042;-64
2024/01/13 03:22:56;;;;;;;53.60;30.58;;;;;;;-146.58;100.00;69501.63;5033035;28;20021;-63
2024/01/13 03:25:22;;;;;;;61.35;32.15;;;;;;;-146.58;100.00;69501.63;5031451;28;20523;-64
2024/01/13 03:27:47;;;;;;;59.13;33.17;;;;;;;-146.58;100.00;69501.63;5032967;28;20028;-64
2024/01/13 03:30:13;;;;;;;58.10;35.90;;;;;;;-146.58;100.00;69501.63;5031445;28;20566;-63
2024/01/13 03:32:38;;;;;;;66.50;36.28;;;;;;;-146.58;100.00;69501.63;5031258;28;20064;-63
2024/01/13 03:35:04;;;;;;;56.85;34.25;;;;;;;-146.58;100.00;69501.63;5030956;28;20087;-61
2024/01/13 03:37:29;;;;;;;68.40;37.58;;;;;;;-146.58;100.00;69501.63;5033019;28;20067;-63
2024/01/13 03:39:55;;;;;;;71.57;40.92;;;;;;;-146.58;100.00;69501.63;5031186;28;20040;-63
2024/01/13 03:42:20;;;;;;;74.82;41.55;;;;;;;-146.58;100.00;69501.63;5032423;28;20512;-62
2024/01/13 03:44:45;;;;;;;65.70;40.95;;;;;;;-146.58;100.00;69501.63;5031031;28;20037;-63
2024/01/13 03:47:11;;;;;;;69.28;42.80;;;;;;;-146.58;100.00;69501.63;5032430;28;20032;-62
2024/01/13 03:49:36;;;;;;;70.68;43.58;;;;;;;-146.58;100.00;69501.63;5030955;28;20041;-62
2024/01/13 03:52:01;;;;;;;80.85;43.65;;;;;;;-146.58;100.00;69501.63;5032447;28;20025;-62
2024/01/13 03:54:27;;;;;;;76.15;41.70;;;;;;;-146.58;100.00;69501.63;5030900;28;20456;-62
2024/01/13 03:56:52;;;;;;;78.70;44.00;;;;;;;-146.58;100.00;69501.63;5032417;28;20029;-62
2024/01/13 03:59:17;;;;;;;69.22;43.55;;;;;;;-146.58;100.00;69501.63;5031185;28;20041;-62
2024/01/13 04:01:43;;;;;;;79.78;46.10;;;;;;;-146.58;100.00;69501.63;5031690;28;20033;-62
2024/01/13 04:04:09;;;;;;;83.10;43.65;;;;;;;-146.58;100.00;69501.63;5030715;28;20508;-62
2024/01/13 04:06:39;;;;;;;77.68;46.00;;;;;;;-146.58;100.00;69501.63;5032035;28;20032;-62
2024/01/13 04:09:04;;;;;;;82.03;46.25;;;;;;;-146.58;100.00;69501.63;5030657;28;20087;-62
2024/01/13 04:11:30;;;;;;;88.18;44.55;;;;;;;-146.58;100.00;69501.63;5032070;28;20025;-62
2024/01/13 04:13:55;;;;;;;91.22;48.28;;;;;;;-146.58;100.00;69501.63;5030821;28;20033;-62
2024/01/13 04:16:20;;;;;;;77.70;45.42;;;;;;;-146.58;100.00;69501.63;5031185;28;20099;-62
2024/01/13 04:18:46;;;;;;;86.47;46.22;;;;;;;-146.58;100.00;69501.63;5030604;28;20050;-62
2024/01/13 04:21:11;;;;;;;83.97;50.00;;;;;;;-146.58;100.00;69501.63;5031967;28;20551;-62
2024/01/13 04:23:37;;;;;;;88.95;49.63;;;;;;;-146.58;100.00;69501.63;5029806;28;20032;-62
2024/01/13 04:26:02;;;;;;;79.93;49.05;;;;;;;-146.58;100.00;69501.63;5032054;28;20021;-63
2024/01/13 04:28:28;;;;;;;88.45;48.53;;;;;;;-146.58;100.00;69501.63;5030443;28;20500;-63
2024/01/13 04:30:53;;;;;;;89.72;50.50;;;;;;;-146.58;100.00;69501.63;5031407;28;20548;-63
2024/01/13 04:33:18;;;;;;;89.75;47.88;;;;;;;-146.58;100.00;69501.63;5031747;28;20025;-63
2024/01/13 04:35:44;;;;;;;94.85;48.25;;;;;;;-146.58;100.00;69501.63;5030137;28;20029;-63
2024/01/13 04:38:09;;;;;;;86.95;45.10;;;;;;;-146.58;100.00;69501.63;5031477;28;20079;-63
2024/01/13 04:40:36;;;;;;;95.10;49.50;;;;;;;-146.58;100.00;69501.63;5030073;28;20041;-63
2024/01/13 04:43:03;;;;;;;87.57;46.25;;;;;;;-146.58;100.00;69501.63;5031441;28;20025;-63
2024/01/13 04:45:29;;;;;;;86.15;45.17;;;;;;;-146.58;100.00;69501.63;5028309;28;20469;-62
2024/01/13 04:47:54;;;;;;;81.38;42.90;;;;;;;-146.58;100.00;69501.63;5031612;28;20030;-63
2024/01/13 04:50:19;;;;;;;99.18;48.28;;;;;;;-146.58;100.00;69501.63;5030198;28;20042;-63
2024/01/13 04:52:45;;;;;;;85.68;44.78;;;;;;;-146.58;100.00;69501.63;5030675;28;20017;-63
2024/01/13 04:55:10;;;;;;;85.63;48.08;;;;;;;-146.58;100.00;69501.63;5029653;28;20045;-63
2024/01/13 04:57:36;;;;;;;85.68;45.03;;;;;;;-146.58;100.00;69501.63;5031360;28;20032;-63
2024/01/13 05:00:04;;;;;;;88.10;48.42;;;;;;;-146.58;100.00;69501.63;5029820;28;20045;-62
2024/01/13 05:02:30;;;;;;;58.63;32.63;;;;;;;-146.58;100.00;69501.63;5030648;28;20025;-62
2024/01/13 05:04:55;;;;;;;88.88;47.60;;;;;;;-146.58;100.00;69501.63;5029970;28;20052;-62
2024/01/13 05:07:21;;;;;;;81.50;43.63;;;;;;;-146.58;100.00;69501.63;5031201;28;20091;-62
2024/01/13 05:09:47;;;;;;;81.00;47.63;;;;;;;-146.58;100.00;69501.63;5029280;28;20412;-62
2024/01/13 05:12:12;;;;;;;76.50;46.15;;;;;;;-146.58;100.00;69501.63;5031339;28;20032;-62
2024/01/13 05:14:38;;;;;;;81.00;43.35;;;;;;;-146.58;100.00;69501.63;5029618;28;20046;-62
2024/01/13 05:17:04;;;;;;;83.85;42.03;;;;;;;-146.58;100.00;69501.63;5030022;28;20499;-62
2024/01/13 05:19:29;;;;;;;73.65;40.00;;;;;;;-146.58;100.00;69501.63;5028965;28;20037;-62
2024/01/13 05:21:54;;;;;;;81.03;40.03;;;;;;;-146.58;100.00;69501.63;5031017;28;20037;-62
2024/01/13 05:24:20;;;;;;;79.20;41.15;;;;;;;-146.58;100.00;69501.63;5029234;28;20092;-61
2024/01/13 05:26:45;;;;;;;70.20;38.45;;;;;;;-146.58;100.00;69501.63;5030286;28;20412;-61
2024/01/13 05:29:11;;;;;;;61.78;37.97;;;;;;;-146.58;100.00;69501.63;5029236;28;20037;-61
2024/01/13 05:31:36;;;;;;;61.90;35.75;;;;;;;-146.58;100.00;69501.63;5030419;28;20025;-61
2024/01/13 05:34:02;;;;;;;78.32;36.28;;;;;;;-146.58;100.00;69501.63;5029510;28;20493;-61
2024/01/13 05:36:27;;;;;;;67.07;34.22;;;;;;;-146.58;100.00;69501.63;5030728;28;20017;-61
2024/01/13 05:38:52;;;;;;;73.55;37.03;;;;;;;-146.58;100.00;69501.63;5028847;28;20033;-61
2024/01/13 05:41:18;;;;;;;67.70;33.17;;;;;;;-146.58;100.00;69501.63;5030760;28;20480;-61
2024/01/13 05:43:44;;;;;;;61.15;31.13;;;;;;;-146.58;100.00;69501.63;5028320;28;20025;-61
2024/01/13 05:46:12;;;;;;;65.30;34.08;;;;;;;-146.58;100.00;69501.63;5030420;28;20025;-61
2024/01/13 05:48:38;;;;;;;57.92;31.77;;;;;;;-146.58;100.00;69501.63;5028675;28;20172;-61
2024/01/13 05:51:04;;;;;;;53.33;31.58;;;;;;;-146.58;100.00;69501.63;5030722;28;20025;-61
2024/01/13 05:53:29;;;;;;;56.78;30.77;;;;;;;-146.58;100.00;69501.63;5028257;28;20029;-61
2024/01/13 05:55:55;;;;;;;52.47;29.90;;;;;;;-146.58;100.00;69501.63;5030690;28;20029;-61
2024/01/13 05:58:20;;;;;;;58.30;29.20;;;;;;;-146.58;100.00;69501.63;5029179;28;20021;-60
2024/01/13 06:00:46;;;;;;;47.55;28.05;;;;;;;-146.58;100.00;69501.63;5027350;28;20052;-61
2024/01/13 06:03:11;;;;;;;49.78;28.73;;;;;;;-146.58;100.00;69501.63;5029461;28;20021;-61
2024/01/13 06:05:38;;;;;;;46.08;30.60;;;;;;;-146.58;100.00;69501.63;5030875;28;20033;-61
2024/01/13 06:08:04;;;;;;;52.42;29.20;;;;;;;-146.58;100.00;69501.63;5032263;28;20588;-61
2024/01/13 06:10:30;;;;;;;47.03;27.77;;;;;;;-146.58;100.00;69501.63;5032243;28;20129;-61
2024/01/13 06:12:56;;;;;;;47.70;26.80;;;;;;;-146.58;100.00;69501.63;5033546;28;20022;-61
2024/01/13 06:15:23;;;;;;;53.85;27.80;;;;;;;-146.58;100.00;69501.63;5031088;28;20042;-61
2024/01/13 06:17:48;;;;;;;56.63;29.00;;;;;;;-146.58;100.00;69501.63;5033465;28;20367;-61
2024/01/13 06:20:14;;;;;;;57.47;30.38;;;;;;;-146.58;100.00;69501.63;5031782;28;20479;-61
2024/01/13 06:22:39;;;;;;;51.65;29.05;;;;;;;-146.58;100.00;69501.63;5031420;28;20025;-62
2024/01/13 06:25:05;;;;;;;61.80;30.75;;;;;;;-146.58;100.00;69501.63;5031737;28;20049;-62
2024/01/13 06:27:30;;;;;;;51.72;29.20;;;;;;;-146.58;100.00;69501.63;5032749;28;20032;-62
2024/01/13 06:29:56;;;;;;;64.43;31.58;;;;;;;-146.58;100.00;69501.63;5030610;28;20404;-62
2024/01/13 06:32:21;;;;;;;58.83;30.55;;;;;;;-146.58;100.00;69501.63;5033673;28;20025;-62
2024/01/13 06:34:47;;;;;;;59.35;31.20;;;;;;;-146.58;100.00;69501.63;5031769;28;20492;-62
2024/01/13 06:37:12;;;;;;;59.90;29.52;;;;;;;-146.58;100.00;69501.63;5031146;28;20029;-62
2024/01/13 06:39:37;;;;;;;53.25;30.45;;;;;;;-146.58;100.00;69501.63;5049674;28;20045;-62
2024/01/13 06:42:06;;;;;;;55.58;28.90;;;;;;;-146.58;100.00;69501.63;5031923;28;20071;-62
2024/01/13 06:44:33;;;;;;;65.13;30.55;;;;;;;-146.58;100.00;69501.63;5029670;28;20045;-62
2024/01/13 06:46:58;;;;;;;67.43;30.70;;;;;;;-146.58;100.00;69501.63;5033048;28;20626;-62
2024/01/13 06:49:24;;;;;;;76.38;34.33;;;;;;;-146.58;100.00;69501.63;5031629;28;20041;-62
2024/01/13 06:51:49;;;;;;;73.35;35.67;;;;;;;-146.58;100.00;69501.63;5031701;28;20547;-62
2024/01/13 06:54:14;;;;;;;67.30;35.08;;;;;;;-146.58;100.00;69501.63;5031055;28;20033;-62
2024/01/13 06:56:41;;;;;;;68.07;32.92;;;;;;;-146.58;100.00;69501.63;5032010;28;20021;-63
2024/01/13 06:59:07;;;;;;;74.65;33.63;;;;;;;-146.58;100.00;69501.63;5030073;28;20045;-63
2024/01/13 07:01:33;;;;;;;69.25;36.55;;;;;;;-146.58;100.00;69501.63;5032394;28;20508;-63
2024/01/13 07:03:58;;;;;;;77.30;37.75;;;;;;;-146.58;100.00;69501.63;5030986;28;20050;-63
2024/01/13 07:06:24;;;;;;;68.28;34.15;;;;;;;-146.58;100.00;69501.63;5031637;28;20033;-63
2024/01/13 07:08:49;;;;;;;71.90;35.55;;;;;;;-146.58;100.00;69501.63;5030970;28;20045;-63
2024/01/13 07:11:15;;;;;;;68.38;39.55;;;;;;;-146.58;100.00;69501.63;5032540;28;20017;-63
2024/01/13 07:13:42;;;;;;;83.82;39.10;;;;;;;-146.58;100.00;69501.63;5029993;28;20040;-63
2024/01/13 07:16:07;;;;;;;67.43;36.33;;;;;;;-146.58;100.00;69501.63;5032002;28;20045;-63
2024/01/13 07:18:33;;;;;;;76.32;36.88;;;;;;;-146.58;100.00;69501.63;5030888;28;20749;-63
2024/01/13 07:20:58;;;;;;;74.72;40.25;;;;;;;-146.58;100.00;69501.63;5031020;28;20021;-63
2024/01/13 07:23:24;;;;;;;92.82;40.50;;;;;;;-146.58;100.00;69501.63;5032249;28;20037;-63
2024/01/13 07:25:49;;;;;;;77.47;40.03;;;;;;;-146.58;100.00;69501.63;5030650;28;20037;-63
2024/01/13 07:28:14;;;;;;;95.18;41.15;;;;;;;-146.58;100.00;69501.63;5031229;28;20032;-63
2024/01/13 07:30:40;;;;;;;86.07;40.28;;;;;;;-146.58;100.00;69501.63;5030430;28;20045;-63
2024/01/13 07:33:05;;;;;;;79.60;41.35;;;;;;;-146.58;100.00;69501.63;5032284;28;20014;-59
2024/01/13 07:35:30;;;;;;;81.18;41.30;;;;;;;-146.58;100.00;69501.63;5029323;28;20463;-60
2024/01/13 07:37:56;;;;;;;80.63;40.85;;;;;;;-146.58;100.00;69501.63;5032201;28;20037;-60
2024/01/13 07:40:21;;;;;;;73.60;38.10;;;;;;;-146.58;100.00;69501.63;5030647;28;20041;-59
2024/01/13 07:42:48;;;;;;;72.25;41.03;;;;;;;-146.58;100.00;69501.63;5031119;28;20021;-59
2024/01/13 07:45:13;;;;;;;76.75;41.15;;;;;;;-146.58;100.00;69501.63;5029966;28;20065;-59
2024/01/13 07:47:39;;;;;;;67.97;38.55;;;;;;;-146.58;100.00;69501.63;5031797;28;20040;-59
2024/01/13 07:50:04;;;;;;;75.20;35.08;;;;;;;-146.58;100.00;69501.63;5030367;28;20401;-59
2024/01/13 07:52:30;;;;;;;71.43;40.97;;;;;;;-146.58;100.00;69501.63;5030021;28;20029;-60
2024/01/13 07:54:55;;;;;;;81.13;40.20;;;;;;;-146.58;100.00;69501.63;5030894;28;20034;-59
2024/01/13 07:57:21;;;;;;;100.07;43.97;;;;;;;-146.58;100.00;69501.63;5031543;28;20032;-59
2024/01/13 07:59:46;;;;;;;75.55;41.28;;;;;;;-146.58;100.00;69501.63;5028550;28;20508;-59
2024/01/13 08:02:14;;;;;;;88.25;43.45;;;;;;;-146.58;100.00;69501.63;5032009;28;20025;-59
2024/01/13 08:04:40;;;;;;;90.38;43.90;;;;;;;-146.58;100.00;69501.63;5030225;28;20068;-59
2024/01/13 08:07:06;;;;;;;84.35;44.72;;;;;;;-146.58;100.00;69501.63;5029142;28;20472;-59
2024/01/13 08:09:31;;;;;;;82.80;41.75;;;;;;;-146.58;100.00;69501.63;5029987;28;20127;-59
2024/01/13 08:11:56;;;;;;;84.63;42.65;;;;;;;-146.58;100.00;69501.63;5031793;28;20017;-59
2024/01/13 08:14:22;;;;;;;85.32;42.72;;;;;;;-146.58;100.00;69501.63;5030404;28;20033;-59
2024/01/13 08:16:48;;;;;;;83.03;42.47;;;;;;;-146.58;100.00;69501.63;5030153;28;20556;-59
2024/01/13 08:19:13;;;;;;;81.47;39.85;;;;;;;-146.58;100.00;69501.63;5031847;28;20022;-59
2024/01/13 08:21:39;;;;;;;74.88;39.70;;;;;;;-146.58;100.00;69501.63;5028528;28;20037;-59
2024/01/13 08:24:04;;;;;;;82.53;40.63;;;;;;;-146.58;100.00;69501.63;5030886;28;20021;-59
2024/01/13 08:26:30;;;;;;;74.68;41.60;;;;;;;-146.58;100.00;69501.63;5029507;28;20041;-59
2024/01/13 08:28:56;;;;;;;70.03;40.17;;;;;;;-146.58;100.00;69501.63;5028303;28;20053;-60
2024/01/13 08:31:21;;;;;;;68.28;38.67;;;;;;;-146.58;100.00;69501.63;5030974;28;20094;-59
2024/01/13 08:33:47;;;;;;;71.65;39.70;;;;;;;-146.58;100.00;69501.63;5029744;28;20073;-59
2024/01/13 08:36:12;;;;;;;78.90;43.85;;;;;;;-146.58;100.00;69501.63;5027485;28;20036;-59
2024/01/13 08:38:38;;;;;;;65.53;36.75;;;;;;;-146.58;100.00;69501.63;5027694;28;20021;-59
2024/01/13 08:41:03;;;;;;;60.97;36.35;;;;;;;-146.58;100.00;69501.63;5030503;28;20032;-60
2024/01/13 08:43:29;;;;;;;57.53;34.15;;;;;;;-146.58;100.00;69501.63;5027664;28;20029;-60
2024/01/13 08:45:54;;;;;;;59.22;35.38;;;;;;;-146.58;100.00;69501.63;5031018;28;20029;-59
2024/01/13 08:48:19;;;;;;;65.40;34.00;;;;;;;-146.58;100.00;69501.63;5031048;28;20025;-59
2024/01/13 08:50:45;;;;;;;59.03;35.00;;;;;;;-146.58;100.00;69501.63;5027590;28;20044;-59
2024/01/13 08:53:10;;;;;;;58.10;33.58;;;;;;;-146.58;100.00;69501.63;5031024;28;20017;-59
2024/01/13 08:55:36;;;;;;;60.35;33.08;;;;;;;-146.58;100.00;69501.63;5029152;28;20041;-59
2024/01/13 08:58:01;;;;;;;66.20;39.35;;;;;;;-146.58;100.00;69501.63;5029751;28;20070;-59
2024/01/13 09:00:28;;;;;;;63.60;35.78;;;;;;;-146.58;100.00;69501.63;5028893;28;20041;-59
2024/01/13 09:02:54;;;;;;;68.80;38.53;;;;;;;-146.58;100.00;69501.63;5030243;28;20100;-59
2024/01/13 09:05:19;;;;;;;63.95;36.58;;;;;;;-146.58;100.00;69501.63;5027477;28;20037;-59
2024/01/13 09:07:44;;;;;;;68.57;36.03;;;;;;;-146.58;100.00;69501.63;5030459;28;20030;-59
2024/01/13 09:10:10;;;;;;;65.53;37.10;;;;;;;-146.58;100.00;69501.63;5028014;28;20034;-59
2024/01/13 09:12:36;;;;;;;68.38;36.30;;;;;;;-146.58;100.00;69501.63;5029252;28;20542;-59
2024/01/13 09:15:02;;;;;;;75.13;38.72;;;;;;;-146.58;100.00;69501.63;5029188;28;20037;-59
2024/01/13 09:17:27;;;;;;;54.65;32.25;;;;;;;-146.58;100.00;69501.63;5030612;28;20435;-59
2024/01/13 09:19:52;;;;;;;74.20;41.63;;;;;;;-146.58;100.00;69501.63;5027767;28;20044;-59
2024/01/13 09:22:18;;;;;;;61.03;36.30;;;;;;;-146.58;100.00;69501.63;5030421;28;20488;-58
2024/01/13 09:24:44;;;;;;;65.10;32.88;;;;;;;-146.58;100.00;69501.63;5028418;28;20048;-58
2024/01/13 09:27:09;;;;;;;66.93;32.25;;;;;;;-146.58;100.00;69501.63;5029277;28;20388;-58
2024/01/13 09:29:34;;;;;;;62.35;33.17;;;;;;;-146.58;100.00;69501.63;5027217;28;20064;-58
2024/01/13 09:32:00;;;;;;;68.32;36.83;;;;;;;-146.58;100.00;69501.63;5023181;28;20013;-59
2024/01/13 09:34:25;;;;;;;72.10;33.38;;;;;;;-146.58;100.00;69501.63;5007615;28;20088;-59
2024/01/13 09:36:51;;;;;;;71.07;32.50;;;;;;;-146.58;100.00;69501.63;5010393;28;20032;-58
2024/01/13 09:39:17;;;;;;;60.92;31.35;;;;;;;-146.58;100.00;69501.63;5023993;28;20075;-58
2024/01/13 09:41:46;;;;;;;62.60;30.95;;;;;;;-146.58;100.00;69501.63;5028623;28;20055;-58
2024/01/13 09:44:20;;;;;;;61.50;31.77;;;;;;;-146.58;100.00;69501.63;5027613;28;20041;-59
2024/01/13 09:46:45;;;;;;;58.15;29.50;;;;;;;-146.58;100.00;69501.63;5030002;28;20361;-58
2024/01/13 09:49:13;;;;;;;55.42;32.67;;;;;;;-146.58;100.00;69501.63;5027484;28;20068;-59
2024/01/13 09:51:40;;;;;;;58.73;33.93;;;;;;;-146.58;100.00;69501.63;5029668;28;20488;-60
2024/01/13 09:54:15;;;;;;;65.35;33.47;;;;;;;-146.58;100.00;69501.63;5027074;28;20041;-59
2024/01/13 09:56:45;;;;;;;53.10;29.67;;;;;;;-146.58;100.00;69501.63;5028028;28;20040;-59
2024/01/13 09:59:12;;;;;;;60.90;26.05;;;;;;;-146.58;100.00;69501.63;5026363;28;20049;-59
2024/01/13 10:01:38;;;;;;;48.55;26.52;;;;;;;-146.58;100.00;69501.63;5029108;28;20026;-60
2024/01/13 10:04:04;;;;;;;47.28;27.30;;;;;;;-146.58;100.00;69501.63;5027003;28;20107;-59
2024/01/13 10:06:32;;;;;;;52.88;26.75;;;;;;;-146.58;100.00;69501.63;5029990;28;20021;-59
2024/01/13 10:08:58;;;;;;;48.23;24.97;;;;;;;-146.58;100.00;69501.63;5028776;28;20619;-59
2024/01/13 10:11:23;;;;;;;46.53;26.00;;;;;;;-146.58;100.00;69501.63;5028647;28;20438;-58
2024/01/13 10:14:02;;;;;;;41.47;24.88;;;;;;;-146.58;100.00;69501.63;5028421;28;20038;-59
2024/01/13 10:16:29;;;;;;;50.60;25.85;;;;;;;-146.58;100.00;69501.63;5030188;28;20040;-59
2024/01/13 10:18:55;;;;;;;42.40;23.88;;;;;;;-146.58;100.00;69501.63;5027515;28;20650;-59
2024/01/13 10:21:22;;;;;;;45.20;25.33;;;;;;;-146.58;100.00;69501.63;5029751;28;20065;-59
2024/01/13 10:23:47;;;;;;;44.92;25.85;;;;;;;-146.58;100.00;69501.63;5028045;28;20030;-58
2024/01/13 10:26:13;;;;;;;44.80;22.73;;;;;;;-146.58;100.00;69501.63;5028876;28;20029;-59
2024/01/13 10:28:38;;;;;;;35.35;21.77;;;;;;;-146.58;100.00;69501.63;5028343;28;20117;-59
2024/01/13 10:31:04;;;;;;;37.95;22.23;;;;;;;-146.58;100.00;69501.63;5029518;28;20037;-59
2024/01/13 10:33:31;;;;;;;39.45;19.80;;;;;;;-146.58;100.00;69501.63;5026812;28;20017;-59
2024/01/13 10:35:57;;;;;;;33.58;19.23;;;;;;;-146.58;100.00;69501.63;5029915;28;20221;-59
2024/01/13 10:38:22;;;;;;;27.95;17.60;;;;;;;-146.58;100.00;69501.63;5029609;28;20037;-59
2024/01/13 10:40:47;;;;;;;31.08;17.35;;;;;;;-146.58;100.00;69501.63;5026886;28;20067;-59
2024/01/13 10:43:14;;;;;;;43.30;18.80;;;;;;;-146.58;100.00;69501.63;5029439;28;20029;-59
2024/01/13 10:45:43;;;;;;;31.02;18.85;;;;;;;-146.58;100.00;69501.63;5027936;28;20512;-59
2024/01/13 10:48:18;;;;;;;26.98;17.60;;;;;;;-146.58;100.00;69501.63;5028303;28;20040;-59